Time;durP1;ratioP1;P1;durP2;ratioP2;P2;SDS_P1;SDS_P2;PMS_P1;PMS_P2;Temp;Humidity;BMP_temperature;BMP_pressure;BME280_temperature;BME280_humidity;BME280_pressure;Samples;Min_cycle;Max_cycle;Signal;HPM_P1;HPM_P2
2023/01/14 00:01:14;;;;;;;8.25;1.77;;;;;;;-142.75;100.00;77542.84;5080558;28;20103;-68
2023/01/14 00:03:40;;;;;;;13.90;1.58;;;;;;;-142.75;100.00;77538.91;5080508;28;20024;-67
2023/01/14 00:06:06;;;;;;;11.55;1.90;;;;;;;-142.75;100.00;77527.09;5080266;28;20031;-67
2023/01/14 00:08:32;;;;;;;7.82;2.20;;;;;;;-142.75;100.00;77531.03;5079969;28;20553;-67
2023/01/14 00:11:05;;;;;;;9.90;1.48;;;;;;;-142.75;100.00;77523.16;5080048;28;20024;-67
2023/01/14 00:13:35;;;;;;;15.35;1.77;;;;;;;-142.75;100.00;77527.09;5080510;28;20339;-67
2023/01/14 00:16:02;;;;;;;10.80;1.63;;;;;;;-142.75;100.00;77523.16;5079844;28;20059;-67
2023/01/14 00:18:27;;;;;;;14.60;1.73;;;;;;;-142.75;100.00;77529.06;5061125;28;20538;-67
2023/01/14 00:21:07;;;;;;;7.03;1.52;;;;;;;-142.75;100.00;77540.88;5062393;28;20020;-67
2023/01/14 00:23:34;;;;;;;11.48;1.20;;;;;;;-142.75;100.00;77554.66;5080161;28;20026;-66
2023/01/14 00:26:02;;;;;;;9.98;2.10;;;;;;;-142.75;100.00;77548.75;5079844;28;20024;-67
2023/01/14 00:28:27;;;;;;;13.30;1.77;;;;;;;-142.75;100.00;77546.78;5079269;28;20028;-67
2023/01/14 00:30:52;;;;;;;19.58;2.28;;;;;;;-142.75;100.00;77540.88;5079899;28;20077;-68
2023/01/14 00:33:18;;;;;;;10.35;2.40;;;;;;;-142.75;100.00;77558.59;5079892;28;20686;-67
2023/01/14 00:35:51;;;;;;;17.65;2.35;;;;;;;-142.75;100.00;77576.31;5079218;28;20039;-67
2023/01/14 00:38:16;;;;;;;10.90;2.25;;;;;;;-142.75;100.00;77568.44;5079297;28;20582;-67
2023/01/14 00:40:41;;;;;;;19.90;2.42;;;;;;;-142.75;100.00;77570.41;5079957;28;20024;-66
2023/01/14 00:43:06;;;;;;;10.88;2.20;;;;;;;-142.75;100.00;77566.47;5079781;28;20023;-66
2023/01/14 00:45:32;;;;;;;17.23;2.47;;;;;;;-142.75;100.00;77588.13;5079287;28;20527;-67
2023/01/14 00:47:57;;;;;;;15.70;2.13;;;;;;;-142.75;100.00;77578.28;5078833;28;20043;-65
2023/01/14 00:50:22;;;;;;;17.67;2.10;;;;;;;-142.75;100.00;77601.91;5079605;28;20063;-66
2023/01/14 00:52:48;;;;;;;10.32;1.83;;;;;;;-142.75;100.00;77597.97;5061793;28;20020;-67
2023/01/14 00:55:13;;;;;;;15.48;1.80;;;;;;;-142.75;100.00;77601.91;5079292;28;20035;-67
2023/01/14 00:57:38;;;;;;;19.77;2.53;;;;;;;-142.75;100.00;77594.03;5078907;28;20049;-67
2023/01/14 01:00:04;;;;;;;20.45;2.83;;;;;;;-142.75;100.00;77605.84;5079368;28;20111;-67
2023/01/14 01:02:29;;;;;;;18.33;2.30;;;;;;;-142.75;100.00;77609.78;5079390;28;20028;-67
2023/01/14 01:04:55;;;;;;;14.48;2.00;;;;;;;-142.75;100.00;77596.00;5079951;28;20023;-65
2023/01/14 01:07:20;;;;;;;13.32;1.88;;;;;;;-142.75;100.00;77607.81;5079620;28;20012;-65
2023/01/14 01:09:46;;;;;;;10.73;1.42;;;;;;;-142.75;100.00;77597.97;5079912;28;20057;-67
2023/01/14 01:12:12;;;;;;;19.98;2.20;;;;;;;-142.75;100.00;77613.72;5079124;28;20066;-67
2023/01/14 01:14:37;;;;;;;14.75;2.17;;;;;;;-142.75;100.00;77625.53;5079326;28;20115;-67
2023/01/14 01:17:02;;;;;;;12.45;1.75;;;;;;;-142.75;100.00;77609.78;5078273;28;20123;-66
2023/01/14 01:19:28;;;;;;;15.65;2.33;;;;;;;-142.75;100.00;77617.66;5060977;28;20061;-67
2023/01/14 01:21:53;;;;;;;13.65;2.13;;;;;;;-142.75;100.00;77617.66;5079557;28;20135;-67
2023/01/14 01:24:18;;;;;;;14.02;2.08;;;;;;;-142.75;100.00;77623.56;5079295;28;20022;-67
2023/01/14 01:26:45;;;;;;;21.88;2.75;;;;;;;-142.75;100.00;77635.38;5059716;28;20561;-66
2023/01/14 01:29:11;;;;;;;14.60;1.80;;;;;;;-142.75;100.00;77641.28;5078826;28;20027;-68
2023/01/14 01:31:36;;;;;;;10.60;1.70;;;;;;;-142.75;100.00;77645.22;5060822;28;20794;-67
2023/01/14 01:34:01;;;;;;;11.73;1.75;;;;;;;-142.75;100.00;77627.50;5061282;28;20495;-66
2023/01/14 01:36:28;;;;;;;19.60;2.22;;;;;;;-142.75;100.00;77621.59;5060713;28;20028;-64
2023/01/14 01:38:53;;;;;;;13.30;2.27;;;;;;;-142.75;100.00;77625.53;5060844;28;20117;-67
2023/01/14 01:41:22;;;;;;;14.27;2.58;;;;;;;-142.75;100.00;77633.41;5061161;28;20126;-67
2023/01/14 01:44:07;;;;;;;16.07;2.43;;;;;;;-142.75;100.00;77633.41;5079370;28;20055;-66
2023/01/14 01:46:34;;;;;;;16.90;2.40;;;;;;;-142.75;100.00;77651.13;5061215;28;20020;-65
2023/01/14 01:49:05;;;;;;;11.03;2.10;;;;;;;-142.75;100.00;77639.31;5082828;28;20840;-67
2023/01/14 01:51:36;;;;;;;18.57;1.90;;;;;;;-142.75;100.00;77635.38;5064563;28;20028;-66
2023/01/14 01:54:02;;;;;;;19.50;2.27;;;;;;;-142.75;100.00;77645.22;5082569;28;20403;-67
2023/01/14 01:56:33;;;;;;;19.23;2.20;;;;;;;-142.75;100.00;77625.53;5082835;28;20028;-67
2023/01/14 01:59:02;;;;;;;15.93;2.10;;;;;;;-142.75;100.00;77619.63;5082891;28;20020;-67
2023/01/14 02:01:27;;;;;;;17.30;2.40;;;;;;;-142.75;100.00;77619.63;5082650;28;20082;-67
2023/01/14 02:03:53;;;;;;;15.32;2.08;;;;;;;-142.75;100.00;77633.41;5083179;28;21561;-66
2023/01/14 02:06:18;;;;;;;9.15;1.92;;;;;;;-142.75;100.00;77621.59;5064361;28;20020;-67
2023/01/14 02:08:48;;;;;;;12.10;2.20;;;;;;;-142.75;100.00;77631.44;5063612;28;20024;-67
2023/01/14 02:11:28;;;;;;;17.93;2.37;;;;;;;-142.75;100.00;77619.63;5082820;28;20020;-67
2023/01/14 02:14:18;;;;;;;21.60;3.47;;;;;;;-142.75;100.00;77629.47;5064785;28;20024;-67
2023/01/14 02:17:10;;;;;;;18.00;2.53;;;;;;;-142.75;100.00;77619.63;5063112;28;20032;-67
2023/01/14 02:19:49;;;;;;;11.90;2.77;;;;;;;-142.75;100.00;77631.44;5082373;28;20039;-66
2023/01/14 02:22:46;;;;;;;14.37;2.17;;;;;;;-142.75;100.00;77627.50;5082214;28;20028;-67
2023/01/14 02:25:21;;;;;;;16.65;2.00;;;;;;;-142.75;100.00;77633.41;5064020;28;20058;-67
2023/01/14 02:27:54;;;;;;;23.63;3.00;;;;;;;-142.75;100.00;77649.16;5064002;28;20807;-67
2023/01/14 02:30:47;;;;;;;13.97;2.00;;;;;;;-142.75;100.00;77657.03;5081530;28;20123;-67
2023/01/14 02:33:35;;;;;;;20.17;2.43;;;;;;;-142.75;100.00;77647.19;5064032;28;20410;-67
2023/01/14 02:36:12;;;;;;;23.90;3.47;;;;;;;-142.75;100.00;77641.28;5081998;28;20028;-67
2023/01/14 02:38:40;;;;;;;22.17;2.73;;;;;;;-142.75;100.00;77651.13;5063363;28;20024;-66
2023/01/14 02:41:17;;;;;;;14.43;2.33;;;;;;;-142.75;100.00;77659.00;5082129;28;20102;-66
2023/01/14 02:44:10;;;;;;;13.07;2.08;;;;;;;-142.75;100.00;77653.09;5081841;28;20024;-67
2023/01/14 02:46:56;;;;;;;18.90;2.73;;;;;;;-142.75;100.00;77633.41;5081321;28;20024;-67
2023/01/14 02:49:30;;;;;;;19.13;3.00;;;;;;;-142.75;100.00;77629.47;5081866;28;20027;-64
2023/01/14 02:51:56;;;;;;;18.63;2.77;;;;;;;-142.75;100.00;77641.28;5082364;28;20027;-64
2023/01/14 02:54:21;;;;;;;12.60;2.40;;;;;;;-142.75;100.00;77633.41;5063283;28;20023;-65
2023/01/14 02:56:49;;;;;;;15.35;3.28;;;;;;;-142.75;100.00;77649.16;5080951;28;20020;-67
2023/01/14 02:59:35;;;;;;;19.20;2.50;;;;;;;-142.75;100.00;77617.66;5081374;28;20153;-66
2023/01/14 03:02:43;;;;;;;8.82;1.63;;;;;;;-142.75;100.00;77605.84;5063319;28;20040;-67
2023/01/14 03:05:17;;;;;;;17.10;3.20;;;;;;;-142.75;100.00;77633.41;5081672;28;20374;-67
2023/01/14 03:07:50;;;;;;;14.37;2.50;;;;;;;-142.75;100.00;77627.50;5062882;28;20024;-65
2023/01/14 03:10:28;;;;;;;16.23;2.30;;;;;;;-142.75;100.00;77623.56;5081225;28;20360;-66
2023/01/14 03:12:59;;;;;;;24.63;3.43;;;;;;;-142.75;100.00;77625.53;5063927;28;20085;-67
2023/01/14 03:15:28;;;;;;;19.23;3.73;;;;;;;-142.75;100.00;77623.56;5081188;28;20148;-65
2023/01/14 03:17:53;;;;;;;12.73;3.07;;;;;;;-142.75;100.00;77623.56;5062755;28;20024;-67
2023/01/14 03:20:34;;;;;;;22.92;3.10;;;;;;;-142.75;100.00;77601.91;5063314;28;20027;-67
2023/01/14 03:23:07;;;;;;;16.77;2.43;;;;;;;-142.75;100.00;77597.97;5080983;28;20552;-66
2023/01/14 03:25:38;;;;;;;23.07;3.93;;;;;;;-142.75;100.00;77590.09;5081009;28;20020;-67
2023/01/14 03:28:08;;;;;;;24.57;3.60;;;;;;;-142.75;100.00;77580.25;5080372;28;20099;-67
2023/01/14 03:30:37;;;;;;;22.17;3.90;;;;;;;-142.75;100.00;77576.31;5081064;28;20024;-67
2023/01/14 03:33:10;;;;;;;23.40;3.60;;;;;;;-142.75;100.00;77570.41;5081045;28;20028;-66
2023/01/14 03:35:39;;;;;;;22.03;3.77;;;;;;;-142.75;100.00;77554.66;5062576;28;20093;-66
2023/01/14 03:38:25;;;;;;;25.20;3.37;;;;;;;-142.75;100.00;77564.50;5080411;28;20055;-66
2023/01/14 03:40:54;;;;;;;21.70;2.80;;;;;;;-142.75;100.00;77542.84;5063000;28;20046;-67
2023/01/14 03:43:42;;;;;;;15.93;3.00;;;;;;;-142.75;100.00;77531.03;5080552;28;20466;-66
2023/01/14 03:46:08;;;;;;;25.67;3.20;;;;;;;-142.75;100.00;77534.97;5080530;28;20790;-67
2023/01/14 03:48:33;;;;;;;25.20;3.20;;;;;;;-142.75;100.00;77536.94;5079912;28;20070;-66
2023/01/14 03:51:13;;;;;;;23.20;3.00;;;;;;;-142.75;100.00;77523.16;5080877;28;20032;-64
2023/01/14 03:54:21;;;;;;;24.47;3.90;;;;;;;-142.75;100.00;77517.25;5062407;28;20461;-67
2023/01/14 03:56:59;;;;;;;28.48;3.45;;;;;;;-142.75;100.00;77531.03;5058177;28;20647;-68
2023/01/14 03:59:39;;;;;;;10.73;2.67;;;;;;;-142.75;100.00;77511.34;5080651;28;20533;-64
2023/01/14 04:02:05;;;;;;;26.30;3.03;;;;;;;-142.75;100.00;77515.28;5062200;28;20042;-67
2023/01/14 04:04:31;;;;;;;17.13;3.07;;;;;;;-142.75;100.00;77517.25;5079555;28;20024;-66
2023/01/14 04:06:57;;;;;;;21.60;3.27;;;;;;;-142.75;100.00;77509.38;5079461;28;20020;-64
2023/01/14 04:09:22;;;;;;;19.13;3.42;;;;;;;-142.75;100.00;77505.44;5061558;28;20046;-67
2023/01/14 04:11:48;;;;;;;25.60;3.28;;;;;;;-142.75;100.00;77511.34;5080709;28;20103;-66
2023/01/14 04:16:57;;;;;;;11.63;2.53;;;;;;;-142.75;100.00;77477.88;5079344;28;20046;-66
2023/01/14 04:19:22;;;;;;;20.17;3.42;;;;;;;-142.75;100.00;77477.88;5061946;28;20040;-66
2023/01/14 04:21:48;;;;;;;30.05;3.80;;;;;;;-142.75;100.00;77464.09;5080192;28;20027;-65
2023/01/14 04:24:13;;;;;;;22.30;3.65;;;;;;;-142.75;100.00;77452.25;5079947;28;20035;-67
2023/01/14 04:26:38;;;;;;;25.50;3.85;;;;;;;-142.75;100.00;77444.38;5079124;28;20107;-66
2023/01/14 04:29:03;;;;;;;12.70;2.75;;;;;;;-142.75;100.00;77430.59;5079937;28;20413;-66
2023/01/14 04:31:29;;;;;;;30.73;3.05;;;;;;;-142.75;100.00;77446.34;5062288;28;20028;-66
2023/01/14 04:33:54;;;;;;;15.68;2.58;;;;;;;-142.75;100.00;77452.25;5062120;28;20061;-66
2023/01/14 04:36:19;;;;;;;16.48;3.10;;;;;;;-142.75;100.00;77434.53;5079374;28;20019;-67
2023/01/14 04:38:45;;;;;;;18.88;3.05;;;;;;;-142.75;100.00;77440.44;5078944;28;20027;-68
2023/01/14 04:43:54;;;;;;;17.67;2.77;;;;;;;-142.75;100.00;77432.56;5080274;28;20043;-64
2023/01/14 04:46:19;;;;;;;21.77;2.97;;;;;;;-142.75;100.00;77436.50;5061391;28;20691;-66
2023/01/14 04:48:44;;;;;;;22.40;3.45;;;;;;;-142.75;100.00;77422.72;5079026;28;20044;-66
2023/01/14 04:51:10;;;;;;;27.27;3.60;;;;;;;-142.75;100.00;77422.72;5079649;28;20146;-67
2023/01/14 04:53:35;;;;;;;26.77;3.33;;;;;;;-142.75;100.00;77418.78;5061529;28;20023;-66
2023/01/14 04:56:00;;;;;;;31.55;3.78;;;;;;;-142.75;100.00;77412.88;5079372;28;20020;-66
2023/01/14 04:58:26;;;;;;;21.38;3.47;;;;;;;-142.75;100.00;77420.75;5078830;28;20071;-66
2023/01/14 05:00:51;;;;;;;20.30;3.67;;;;;;;-142.75;100.00;77410.91;5079530;28;20020;-66
2023/01/14 05:03:16;;;;;;;15.77;2.88;;;;;;;-142.75;100.00;77408.94;5079687;28;20027;-66
2023/01/14 05:05:42;;;;;;;15.77;3.00;;;;;;;-142.75;100.00;77403.03;5079022;28;20112;-66
2023/01/14 05:08:09;;;;;;;18.17;2.50;;;;;;;-142.75;100.00;77381.38;5078772;28;20095;-66
2023/01/14 05:10:35;;;;;;;26.67;2.97;;;;;;;-142.75;100.00;77393.19;5079279;28;20024;-67
2023/01/14 05:13:02;;;;;;;16.40;2.70;;;;;;;-142.75;100.00;77401.06;5079578;28;20081;-67
2023/01/14 05:15:40;;;;;;;12.17;2.20;;;;;;;-142.75;100.00;77379.41;5078947;28;20031;-67
2023/01/14 05:18:07;;;;;;;19.50;3.17;;;;;;;-142.75;100.00;77359.72;5078488;28;20032;-66
2023/01/14 05:20:33;;;;;;;23.77;2.97;;;;;;;-142.75;100.00;77357.75;5079202;28;20031;-64
2023/01/14 05:23:01;;;;;;;18.50;2.58;;;;;;;-142.75;100.00;77363.66;5079004;28;20028;-66
2023/01/14 05:25:28;;;;;;;24.17;2.90;;;;;;;-142.75;100.00;77342.00;5060836;28;20398;-66
2023/01/14 05:27:53;;;;;;;21.20;2.50;;;;;;;-142.75;100.00;77349.88;5060653;28;20143;-64
2023/01/14 05:30:19;;;;;;;15.43;3.13;;;;;;;-142.75;100.00;77338.06;5061406;28;20024;-66
2023/01/14 05:32:45;;;;;;;;;;;;;;;-142.75;100.00;77334.13;5061436;28;20494;-67
2023/01/14 05:35:10;;;;;;;24.57;2.90;;;;;;;-142.75;100.00;77338.06;5079011;28;19919;-67
2023/01/14 05:37:35;;;;;;;20.60;2.90;;;;;;;-142.75;100.00;77330.19;5078244;28;20028;-67
2023/01/14 05:40:01;;;;;;;22.33;2.65;;;;;;;-142.75;100.00;77326.25;5079168;28;20020;-67
2023/01/14 05:47:56;;;;;;;10.77;2.20;;;;;;;-142.75;100.00;77310.50;5078810;28;20624;-64
2023/01/14 05:50:21;;;;;;;15.98;2.08;;;;;;;-142.75;100.00;77308.53;5061103;28;20028;-63
2023/01/14 05:52:47;;;;;;;20.35;3.28;;;;;;;-142.75;100.00;77294.75;5061455;28;20725;-63
2023/01/14 05:55:12;;;;;;;17.77;2.53;;;;;;;-142.75;100.00;77300.66;5078899;28;20032;-66
2023/01/14 05:57:37;;;;;;;21.45;2.22;;;;;;;-142.75;100.00;77292.78;5078047;28;20036;-65
2023/01/14 06:00:03;;;;;;;19.27;2.63;;;;;;;-142.75;100.00;77279.00;5078752;28;20020;-67
2023/01/14 06:07:57;;;;;;;15.83;2.33;;;;;;;-142.75;100.00;77286.88;5078004;28;20039;-64
2023/01/14 06:10:26;;;;;;;15.70;2.85;;;;;;;-142.75;100.00;77271.13;5078635;28;20028;-65
2023/01/14 06:12:58;;;;;;;18.03;2.63;;;;;;;-142.75;100.00;77271.13;5060818;28;20029;-65
2023/01/14 06:15:25;;;;;;;24.63;3.00;;;;;;;-142.75;100.00;77275.06;5078886;28;20024;-64
2023/01/14 06:17:58;;;;;;;15.03;2.90;;;;;;;-142.75;100.00;77267.19;5078318;28;20021;-66
2023/01/14 06:20:24;;;;;;;26.10;2.50;;;;;;;-142.75;100.00;77259.31;5078811;28;20032;-65
2023/01/14 06:22:53;;;;;;;14.47;2.40;;;;;;;-142.75;100.00;77237.66;5079075;28;20468;-65
2023/01/14 06:25:18;;;;;;;16.63;3.23;;;;;;;-142.75;100.00;77233.72;5078522;28;20157;-65
2023/01/14 06:27:43;;;;;;;20.35;2.85;;;;;;;-142.75;100.00;77251.44;5078125;28;20476;-66
2023/01/14 06:30:10;;;;;;;16.33;2.20;;;;;;;-142.75;100.00;77225.84;5078384;28;20076;-66
2023/01/14 06:32:35;;;;;;;;;;;;;;;-142.75;100.00;77235.69;5079922;28;20086;-66
2023/01/14 06:35:00;;;;;;;14.97;2.47;;;;;;;-142.75;100.00;77235.69;5081919;28;19912;-65
2023/01/14 06:37:26;;;;;;;16.23;2.25;;;;;;;-142.75;100.00;77219.94;5063037;28;20182;-66
2023/01/14 06:39:51;;;;;;;16.58;2.80;;;;;;;-142.75;100.00;77231.75;5064449;28;20027;-67
2023/01/14 06:42:17;;;;;;;10.68;2.75;;;;;;;-142.75;100.00;77202.22;5081859;28;20024;-65
2023/01/14 06:44:42;;;;;;;;;;;;;;;-142.75;100.00;77200.25;5082556;28;20565;-66
2023/01/14 06:47:07;;;;;;;21.57;2.50;;;;;;;-142.75;100.00;77200.25;5080859;28;19911;-65
2023/01/14 06:49:33;;;;;;;21.60;3.53;;;;;;;-142.75;100.00;77182.53;5063588;28;20023;-66
2023/01/14 06:51:58;;;;;;;13.50;2.83;;;;;;;-142.75;100.00;77190.41;5081827;28;20020;-64
2023/01/14 06:54:23;;;;;;;17.00;2.05;;;;;;;-142.75;100.00;77180.56;5081725;28;20028;-65
2023/01/14 06:56:49;;;;;;;10.95;2.60;;;;;;;-142.75;100.00;77180.56;5081192;28;20028;-64
2023/01/14 06:59:14;;;;;;;23.55;3.38;;;;;;;-142.75;100.00;77166.78;5081763;28;20069;-65
2023/01/14 07:01:39;;;;;;;25.42;5.13;;;;;;;-142.75;100.00;77137.25;5081732;28;20974;-64
2023/01/14 07:04:04;;;;;;;15.00;3.08;;;;;;;-142.75;100.00;77137.25;5081393;28;20020;-65
2023/01/14 07:06:30;;;;;;;18.45;2.75;;;;;;;-142.75;100.00;77129.38;5082510;28;20024;-63
2023/01/14 07:08:55;;;;;;;16.50;2.58;;;;;;;-142.75;100.00;77121.50;5081437;28;20058;-63
2023/01/14 07:11:20;;;;;;;11.45;2.47;;;;;;;-142.75;100.00;77105.75;5081457;28;20609;-61
2023/01/14 07:13:46;;;;;;;12.90;3.03;;;;;;;-142.75;100.00;77086.06;5063688;28;21506;-66
2023/01/14 07:16:11;;;;;;;16.90;2.88;;;;;;;-142.75;100.00;77101.81;5063353;28;20077;-66
2023/01/14 07:18:36;;;;;;;20.60;2.97;;;;;;;-142.75;100.00;77086.06;5062384;28;20020;-66
2023/01/14 07:21:02;;;;;;;11.68;3.10;;;;;;;-142.75;100.00;77078.19;5081061;28;20089;-65
2023/01/14 07:23:27;;;;;;;15.07;3.20;;;;;;;-142.75;100.00;77050.63;5081464;28;20141;-65
2023/01/14 07:25:55;;;;;;;25.52;3.88;;;;;;;-142.75;100.00;77038.81;5081283;28;20577;-62
2023/01/14 07:28:22;;;;;;;13.20;2.80;;;;;;;-142.75;100.00;77050.63;5080134;28;20030;-62
2023/01/14 07:30:48;;;;;;;13.60;3.20;;;;;;;-142.75;100.00;77028.97;5081345;28;20022;-64
2023/01/14 07:33:13;;;;;;;20.80;3.55;;;;;;;-142.75;100.00;77007.31;5080814;28;20024;-65
2023/01/14 07:35:38;;;;;;;10.43;2.90;;;;;;;-142.75;100.00;77001.41;5080804;28;20026;-64
2023/01/14 07:38:04;;;;;;;14.10;2.88;;;;;;;-142.75;100.00;76995.50;5079956;28;20028;-64
2023/01/14 07:40:29;;;;;;;12.18;3.05;;;;;;;-142.75;100.00;76983.69;5080782;28;20063;-66
2023/01/14 07:42:59;;;;;;;13.98;3.17;;;;;;;-142.75;100.00;76975.81;5063527;28;20028;-64
2023/01/14 07:45:26;;;;;;;9.90;3.13;;;;;;;-142.75;100.00;76967.94;5061358;28;20016;-65
2023/01/14 07:47:51;;;;;;;14.50;3.17;;;;;;;-142.75;100.00;76944.31;5080271;28;20039;-64
2023/01/14 07:50:18;;;;;;;10.63;3.63;;;;;;;-142.75;100.00;76932.50;5080945;28;20020;-64
2023/01/14 07:52:51;;;;;;;21.27;3.73;;;;;;;-142.75;100.00;76940.38;5080614;28;20038;-65
2023/01/14 07:55:17;;;;;;;11.17;3.80;;;;;;;-142.75;100.00;76916.75;5080597;28;20441;-62
2023/01/14 07:57:42;;;;;;;9.45;3.22;;;;;;;-142.75;100.00;76906.91;5079808;28;20035;-66
2023/01/14 08:00:08;;;;;;;10.63;3.63;;;;;;;-142.75;100.00;76899.03;5062328;28;20024;-63
2023/01/14 08:02:34;;;;;;;11.23;4.20;;;;;;;-142.75;100.00;76869.50;5080658;28;20016;-65
2023/01/14 08:04:59;;;;;;;10.43;3.63;;;;;;;-142.75;100.00;76871.47;5080341;28;20040;-65
2023/01/14 08:07:24;;;;;;;12.30;4.75;;;;;;;-142.75;100.00;76869.50;5079410;28;20422;-63
2023/01/14 08:09:50;;;;;;;26.58;4.22;;;;;;;-142.75;100.00;76843.91;5080365;28;20024;-64
2023/01/14 08:12:17;;;;;;;16.45;3.88;;;;;;;-142.75;100.00;76824.22;5080045;28;20135;-65
2023/01/14 08:14:42;;;;;;;15.17;3.97;;;;;;;-142.75;100.00;76816.34;5080443;28;20142;-64
2023/01/14 08:17:07;;;;;;;7.20;3.85;;;;;;;-142.75;100.00;76798.66;5079021;28;21031;-63
2023/01/14 08:19:33;;;;;;;11.05;3.97;;;;;;;-142.75;100.00;76784.88;5062181;28;20035;-65
2023/01/14 08:21:58;;;;;;;13.95;4.70;;;;;;;-142.75;100.00;76769.13;5080073;28;20027;-64
2023/01/14 08:24:24;;;;;;;9.15;4.53;;;;;;;-142.75;100.00;76757.31;5080074;28;20605;-64
2023/01/14 08:26:49;;;;;;;14.27;4.88;;;;;;;-142.75;100.00;76737.63;5061329;28;20035;-63
2023/01/14 08:29:17;;;;;;;13.52;5.13;;;;;;;-142.75;100.00;76739.59;5079824;28;20569;-64
2023/01/14 08:31:43;;;;;;;13.63;5.50;;;;;;;-142.75;100.00;76731.72;5061686;28;20028;-64
2023/01/14 08:34:08;;;;;;;;;;;;;;;-142.75;100.00;76715.97;5080132;28;20034;-63
2023/01/14 08:36:34;;;;;;;9.23;4.07;;;;;;;-142.75;100.00;76702.19;5079272;28;20626;-63
2023/01/14 08:38:59;;;;;;;7.30;4.25;;;;;;;-142.75;100.00;76692.34;5061461;28;20077;-63
2023/01/14 08:41:25;;;;;;;13.13;4.70;;;;;;;-142.75;100.00;76678.56;5079603;28;20116;-66
2023/01/14 08:43:51;;;;;;;13.88;5.25;;;;;;;-142.75;100.00;76652.97;5079828;28;20468;-65
2023/01/14 08:46:18;;;;;;;9.93;4.37;;;;;;;-142.75;100.00;76641.16;5079090;28;20043;-66
2023/01/14 08:48:43;;;;;;;13.27;4.73;;;;;;;-142.75;100.00;76639.19;5079174;28;20414;-65
2023/01/14 08:51:11;;;;;;;11.02;3.65;;;;;;;-142.75;100.00;76611.63;5079552;28;20141;-65
2023/01/14 08:53:38;;;;;;;9.57;3.50;;;;;;;-142.75;100.00;76601.78;5079551;28;20035;-65
2023/01/14 08:56:06;;;;;;;7.70;3.30;;;;;;;-142.75;100.00;76574.22;5079160;28;20468;-64
2023/01/14 08:58:32;;;;;;;9.30;3.03;;;;;;;-142.75;100.00;76582.09;5060789;28;20114;-65
2023/01/14 09:00:58;;;;;;;;;;;;;;;-142.75;100.00;76534.84;5061957;28;20413;-61
2023/01/14 09:03:25;;;;;;;6.30;2.13;;;;;;;-142.75;100.00;76530.91;5079313;28;19966;-64
2023/01/14 09:05:56;;;;;;;11.67;3.13;;;;;;;-142.75;100.00;76523.06;5079551;28;20024;-65
2023/01/14 09:19:21;;;;;;;12.17;3.07;;;;;;;-142.75;100.00;76501.41;5079657;28;20778;-63
2023/01/14 09:21:47;;;;;;;10.75;2.95;;;;;;;-142.75;100.00;76489.59;5061249;28;20024;-64
2023/01/14 09:24:13;;;;;;;12.32;3.03;;;;;;;-142.75;100.00;76495.50;5079130;28;20103;-66
2023/01/14 09:26:39;;;;;;;8.33;2.57;;;;;;;-142.75;100.00;76491.56;5078431;28;20031;-66
2023/01/14 09:29:04;;;;;;;6.80;2.20;;;;;;;-142.75;100.00;76481.72;5079193;28;20046;-65
2023/01/14 09:31:29;;;;;;;11.82;2.70;;;;;;;-142.75;100.00;76483.69;5079159;28;20028;-65
2023/01/14 09:33:55;;;;;;;10.85;2.70;;;;;;;-142.75;100.00;76471.88;5079326;28;20070;-65
2023/01/14 09:36:20;;;;;;;6.35;2.15;;;;;;;-142.75;100.00;76460.06;5078826;28;20024;-63
2023/01/14 09:38:45;;;;;;;6.20;1.98;;;;;;;-142.75;100.00;76456.13;5078953;28;20089;-66
2023/01/14 09:41:39;;;;;;;10.75;2.00;;;;;;;-142.75;100.00;76444.31;5079248;28;20020;-65
2023/01/14 09:44:07;;;;;;;9.23;2.40;;;;;;;-142.75;100.00;76426.59;5074728;28;20044;-65
2023/01/14 09:46:33;;;;;;;6.77;2.20;;;;;;;-142.75;100.00;76420.69;5078722;28;20042;-64
2023/01/14 09:49:01;;;;;;;;;;;;;;;-142.75;100.00;76412.81;5079056;28;20043;-65
2023/01/14 09:51:55;;;;;;;6.13;2.40;;;;;;;-142.75;100.00;76397.06;5078833;28;19920;-64
2023/01/14 09:54:55;;;;;;;8.03;2.50;;;;;;;-142.75;100.00;76412.81;5060870;28;20115;-61
2023/01/14 09:57:23;;;;;;;8.83;2.07;;;;;;;-142.75;100.00;76385.25;5077628;28;20035;-62
2023/01/14 10:00:23;;;;;;;8.60;2.37;;;;;;;-142.75;100.00;76379.34;5061034;28;20649;-65
2023/01/14 10:03:01;;;;;;;8.23;2.10;;;;;;;-142.75;100.00;76367.53;5079134;28;20016;-64
2023/01/14 10:05:32;;;;;;;13.70;2.80;;;;;;;-142.75;100.00;76341.97;5078668;28;20385;-64
2023/01/14 10:08:00;;;;;;;6.97;2.07;;;;;;;-142.75;100.00;76322.28;5079565;28;20028;-63
2023/01/14 10:10:31;;;;;;;6.50;2.40;;;;;;;-142.75;100.00;76306.53;5064707;28;20023;-64
2023/01/14 10:13:01;;;;;;;6.77;2.00;;;;;;;-142.75;100.00;76318.34;5082537;28;20035;-61
2023/01/14 10:15:41;;;;;;;6.00;2.40;;;;;;;-142.75;100.00;76286.84;5064312;28;20050;-64
2023/01/14 10:18:31;;;;;;;8.67;2.20;;;;;;;-142.75;100.00;76286.84;5081459;28;20827;-65
2023/01/14 10:20:59;;;;;;;6.77;2.37;;;;;;;-142.75;100.00;76278.97;5082235;28;20035;-63
2023/01/14 10:23:32;;;;;;;7.53;2.13;;;;;;;-142.75;100.00;76255.34;5082391;28;20031;-64
2023/01/14 10:25:57;;;;;;;10.13;2.40;;;;;;;-142.75;100.00;76239.59;5082544;28;20679;-63
2023/01/14 10:28:28;;;;;;;7.82;1.70;;;;;;;-142.75;100.00;76223.84;5081550;28;20024;-63
2023/01/14 10:30:57;;;;;;;5.97;1.73;;;;;;;-142.75;100.00;76210.06;5082460;28;20031;-65
2023/01/14 10:33:23;;;;;;;5.80;1.63;;;;;;;-142.75;100.00;76208.09;5064244;28;20043;-62
2023/01/14 10:36:02;;;;;;;9.80;1.70;;;;;;;-142.75;100.00;76225.81;5082623;28;20024;-64
2023/01/14 10:38:28;;;;;;;5.30;1.97;;;;;;;-142.75;100.00;76200.25;5081194;28;20036;-65
2023/01/14 10:41:05;;;;;;;8.50;1.55;;;;;;;-142.75;100.00;76172.69;5082214;28;20024;-63
2023/01/14 10:43:42;;;;;;;6.47;1.30;;;;;;;-142.75;100.00;76164.81;5081754;28;20015;-63
2023/01/14 10:46:21;;;;;;;11.60;2.30;;;;;;;-142.75;100.00;76143.16;5081941;28;20797;-65
2023/01/14 10:48:57;;;;;;;11.03;1.83;;;;;;;-142.75;100.00;76129.38;5081684;28;20030;-64
2023/01/14 10:51:49;;;;;;;3.67;1.75;;;;;;;-142.75;100.00;76121.50;5081915;28;20026;-63
2023/01/14 10:54:17;;;;;;;3.83;1.60;;;;;;;-142.75;100.00;76097.88;5063687;28;20031;-65
2023/01/14 10:56:55;;;;;;;4.17;1.63;;;;;;;-142.75;100.00;76090.00;5081061;28;20046;-65
2023/01/14 10:59:37;;;;;;;3.40;1.50;;;;;;;-142.75;100.00;76082.13;5081647;28;20024;-61
2023/01/14 11:02:02;;;;;;;9.80;1.83;;;;;;;-142.75;100.00;76090.00;5081680;28;20074;-65
2023/01/14 11:04:35;;;;;;;5.30;1.65;;;;;;;-142.75;100.00;76066.41;5063515;28;20040;-64
2023/01/14 11:07:09;;;;;;;4.90;1.60;;;;;;;-142.75;100.00;76066.41;5080334;28;20075;-63
2023/01/14 11:09:36;;;;;;;2.73;1.63;;;;;;;-142.75;100.00;76078.19;5063269;28;20015;-64
2023/01/14 11:12:03;;;;;;;7.33;1.77;;;;;;;-142.75;100.00;76038.84;5081288;28;20016;-64
2023/01/14 11:14:31;;;;;;;7.13;1.60;;;;;;;-142.75;100.00;76040.81;5081329;28;20027;-64
2023/01/14 11:16:58;;;;;;;3.70;1.40;;;;;;;-142.75;100.00;76023.09;5080389;28;20034;-61
2023/01/14 11:19:27;;;;;;;4.97;1.67;;;;;;;-142.75;100.00;76030.97;5062582;28;20047;-62
2023/01/14 11:22:00;;;;;;;6.83;2.43;;;;;;;-142.75;100.00;76005.38;5081341;28;20827;-64
2023/01/14 11:24:37;;;;;;;4.60;1.43;;;;;;;-142.75;100.00;76015.22;5081235;28;20683;-65
2023/01/14 11:27:06;;;;;;;8.00;1.67;;;;;;;-142.75;100.00;76009.31;5080397;28;20027;-65
2023/01/14 11:29:37;;;;;;;3.33;1.23;;;;;;;-142.75;100.00;75991.59;5081113;28;20024;-64
2023/01/14 11:32:11;;;;;;;6.43;1.05;;;;;;;-142.75;100.00;75967.97;5062884;28;20019;-65
2023/01/14 11:34:59;;;;;;;5.47;1.43;;;;;;;-142.75;100.00;75989.63;5062616;28;20548;-64
2023/01/14 11:37:31;;;;;;;2.10;1.03;;;;;;;-142.75;100.00;75975.84;5080000;28;20032;-65
2023/01/14 11:39:59;;;;;;;5.67;0.93;;;;;;;-142.75;100.00;75969.94;5080975;28;20020;-62
2023/01/14 11:42:41;;;;;;;5.57;0.97;;;;;;;-142.75;100.00;75948.31;5080916;28;20536;-65